Terminal Aerodrome Forecast
Issued by NWS Tampa Bay Area, FL

Home | Current Version | Previous Version | Text Only | Print | Product List | Glossary On
Versions: 1 2 3 4 5 6 7 8 9 10 11 12 13 14
000
FTUS42 KTBW 202300
TAFSRQ
TAF
KSRQ 202333Z 2100/2124 27006KT P6SM BKN250
     FM210400 VRB03KT P6SM SCT025 BKN150
     FM211600 20007KT P6SM SCT035 BKN150
     FM212000 23006KT P6SM VCTS SCT035CB BKN150=

USA.gov is the U.S. government's official web portal to all federal, state and local government web resources and services.